Latest Weather Observations for Jervois

IDD60801

Issued at 12:51 pm CST Sunday 16 December 2018 (issued every 10 minutes, with the page automatically refreshed every 10 minutes)

About weather observations | Map of weather stations | Latest weather observations for NT | Other Formats
Station Details ID: 015602 Name: JERVOIS Lat: -22.95 Lon: 136.14 Height: 328.0 m
Data from the previous 72 hours. | See also: Recent months at Jervois
Date/Time
CST
Temp
°C
App
Temp
°C
Dew
Point
°C
Rel
Hum
%
Delta-T
°C
Wind Press
QNH
hPa
Press
MSL
hPa
Rain since
9am
mm
Dir  Spd
km/h
Gust
km/h
Spd
kts
Gust
kts
16/12:30pm 35.7 32.5 0.7 11 17.8 SW 7 17 4 9 1009.2 - 0.0
16/12:00pm 34.9 31.4 1.3 12 17.2 S 9 19 5 10 1009.6 1007.2 0.0
16/11:30am 34.3 30.1 1.9 13 16.7 E 13 20 7 11 1009.9 - 0.0
16/11:00am 33.3 30.0 2.2 14 16.0 ENE 9 22 5 12 1010.2 - 0.0
16/10:30am 31.9 28.3 3.0 16 14.9 SSE 11 19 6 10 1010.5 - 0.0
16/10:00am 31.2 27.7 3.3 17 14.4 ESE 11 24 6 13 1010.8 - 0.0
16/09:30am 30.3 26.2 4.1 19 13.7 E 15 22 8 12 1010.9 - 0.0
16/09:00am 29.5 25.4 4.2 20 13.2 E 15 20 8 11 1011.0 1008.7 0.0
16/08:30am 28.6 24.6 4.8 22 12.4 E 15 19 8 10 1011.2 - 0.0
16/08:00am 27.2 23.2 4.9 24 11.6 E 15 20 8 11 1011.3 - 0.0
16/07:30am 25.8 22.2 4.9 26 10.7 E 13 20 7 11 1010.8 - 0.0
16/07:00am 23.3 20.2 3.8 28 9.7 E 9 13 5 7 1010.6 - 0.0
16/06:30am 20.4 18.8 2.3 30 8.5 CALM 0 0 0 0 1010.4 - 0.0
16/06:00am 16.6 14.8 1.1 35 6.9 CALM 0 0 0 0 1010.0 1007.6 0.0
16/05:30am 16.4 14.6 1.3 36 6.8 CALM 0 0 0 0 1009.6 - 0.0
16/05:00am 16.6 14.6 -0.1 32 7.3 CALM 0 0 0 0 1009.1 - 0.0
16/04:30am 17.1 14.0 -0.1 31 7.5 ESE 6 7 3 4 1008.5 - 0.0
16/04:00am 18.1 16.1 -0.2 29 8.1 CALM 0 0 0 0 1008.2 - 0.0
16/03:30am 19.3 16.0 -0.1 27 8.7 ESE 7 9 4 5 1007.9 - 0.0
16/03:00am 19.2 15.9 -0.2 27 8.7 ESE 7 9 4 5 1007.9 1005.5 0.0
16/02:30am 20.2 17.3 -1.0 24 9.4 ESE 4 6 2 3 1007.9 - 0.0
16/02:00am 21.3 17.8 -1.3 22 10.0 SE 7 9 4 5 1007.9 - 0.0
16/01:30am 21.6 17.7 -1.6 21 10.2 SSE 9 13 5 7 1007.9 - 0.0
16/01:00am 21.7 18.1 -2.2 20 10.4 SE 7 9 4 5 1008.1 - 0.0
16/12:30am 21.4 17.7 -2.5 20 10.3 SE 7 9 4 5 1008.1 - 0.0
16/12:00am 22.7 19.0 -2.8 18 11.1 SE 7 9 4 5 1008.4 1006.0 0.0
 
Date/Time
CST
Temp
°C
App
Temp
°C
Dew
Point
°C
Rel
Hum
%
Delta-T
°C
Wind Press
QNH
hPa
Press
MSL
hPa
Rain since
9am
mm
Dir  Spd
km/h
Gust
km/h
Spd
kts
Gust
kts
15/11:30pm 23.6 19.5 -2.8 17 11.6 SE 9 11 5 6 1008.4 - 0.0
15/11:00pm 24.1 20.3 -4.1 15 12.1 SE 7 9 4 5 1008.2 - 0.0
15/10:30pm 25.3 21.1 -4.1 14 12.8 SE 9 13 5 7 1008.2 - 0.0
15/10:00pm 26.0 21.8 -3.5 14 13.0 SE 9 13 5 7 1008.0 - 0.0
15/09:30pm 26.5 21.8 -5.2 12 13.6 SE 11 15 6 8 1007.6 - 0.0
15/09:00pm 26.9 22.6 -4.9 12 13.8 ESE 9 11 5 6 1007.4 1005.0 0.0
15/08:30pm 28.5 23.8 -4.8 11 14.7 SE 11 15 6 8 1007.1 - 0.0
15/08:00pm 29.6 24.1 -5.2 10 15.4 SE 15 20 8 11 1006.9 - 0.0
15/07:30pm 30.4 25.4 -4.6 10 15.7 SSE 13 19 7 10 1006.5 - 0.0
15/07:00pm 31.7 25.5 -5.0 9 16.5 SSE 19 33 10 18 1006.3 - 0.0
15/06:30pm 32.9 26.6 -5.7 8 17.4 SSE 19 24 10 13 1006.0 - 0.0
15/06:00pm 33.9 28.3 -6.7 7 18.2 S 15 28 8 15 1005.8 1003.4 0.0
15/05:30pm 34.8 28.9 -6.0 7 18.5 SSW 17 30 9 16 1005.5 - 0.0
15/05:00pm 34.9 29.0 -6.0 7 18.6 WSW 17 28 9 15 1005.3 - 0.0
15/04:30pm 34.6 29.4 -6.2 7 18.4 W 13 24 7 13 1005.4 - 0.0
15/04:00pm 34.7 28.8 -6.1 7 18.5 SW 17 33 9 18 1005.4 - 0.0
15/03:30pm 34.7 29.1 -6.1 7 18.5 SW 15 39 8 21 1005.7 - 0.0
15/03:00pm 34.1 28.7 -4.8 8 18.0 SW 15 28 8 15 1006.1 1003.7 0.0
15/02:30pm 33.9 28.1 -4.9 8 17.8 W 17 24 9 13 1006.5 - 0.0
15/02:00pm 33.8 28.0 -5.0 8 17.8 SSW 17 24 9 13 1006.9 - 0.0
15/01:30pm 32.8 27.3 -5.7 8 17.3 SSW 15 30 8 16 1007.4 - 0.0
15/01:00pm 31.3 25.8 -5.3 9 16.4 SSW 15 28 8 15 1007.6 - 0.0
15/12:30pm 31.1 26.0 -5.5 9 16.3 S 13 20 7 11 1007.8 - 0.0
15/12:00pm 30.6 25.4 -5.8 9 16.1 S 13 20 7 11 1008.2 1006.0 0.0
15/11:30am 29.8 24.3 -5.1 10 15.5 SSE 15 28 8 15 1008.9 - 0.0
15/11:00am 28.9 23.7 -5.7 10 15.1 S 13 20 7 11 1009.3 - 0.0
15/10:30am 28.1 22.9 -6.3 10 14.7 S 13 22 7 12 1009.9 - 0.0
15/10:00am 27.3 22.4 -6.9 10 14.4 S 11 17 6 9 1010.2 - 0.0
15/09:30am 26.8 22.0 -6.1 11 14.0 SE 11 15 6 8 1010.4 - 0.0
15/09:00am 25.4 20.6 -6.0 12 13.2 S 11 19 6 10 1010.8 1008.5 0.0
15/08:30am 25.0 20.2 -6.3 12 13.0 SSE 11 15 6 8 1010.9 - 0.0
15/08:00am 23.6 18.4 -6.4 13 12.3 SSE 13 20 7 11 1010.8 - 0.0
15/07:30am 22.6 18.4 -7.2 13 11.9 ESE 7 11 4 6 1010.5 - 0.0
15/07:00am 20.4 16.3 -7.1 15 10.8 SSE 7 11 4 6 1010.3 - 0.0
15/06:30am 17.5 13.5 -5.7 20 9.1 SSW 7 9 4 5 1010.2 - 0.0
15/06:00am 15.4 11.5 -5.0 24 7.9 SSW 7 9 4 5 1009.9 1007.5 0.0
15/05:30am 14.7 10.8 -5.1 25 7.6 SSW 7 9 4 5 1009.4 - 0.0
15/05:00am 15.1 11.3 -5.3 24 7.8 S 6 7 3 4 1009.0 - 0.0
15/04:30am 15.4 11.5 -5.0 24 7.9 S 7 9 4 5 1008.6 - 0.0
15/04:00am 16.1 12.3 -5.6 22 8.4 S 6 9 3 5 1008.5 - 0.0
15/03:30am 16.5 12.5 -5.3 22 8.5 S 7 9 4 5 1008.5 - 0.0
15/03:00am 16.8 13.4 -5.6 21 8.7 S 4 9 2 5 1008.6 1006.2 0.0
15/02:30am 18.3 14.2 -6.4 18 9.6 SSE 7 11 4 6 1008.7 - 0.0
15/02:00am 19.3 14.9 -6.3 17 10.1 SSE 9 13 5 7 1008.6 - 0.0
15/01:30am 20.2 15.4 -5.6 17 10.4 SSE 11 20 6 11 1008.7 - 0.0
15/01:00am 19.5 15.2 -4.7 19 9.9 SSE 9 11 5 6 1009.1 - 0.0
15/12:30am 20.2 15.9 -4.8 18 10.2 SSE 9 11 5 6 1009.5 - 0.0
15/12:00am 20.8 16.5 -4.4 18 10.5 SE 9 11 5 6 1009.8 1007.5 0.0
 
Date/Time
CST
Temp
°C
App
Temp
°C
Dew
Point
°C
Rel
Hum
%
Delta-T
°C
Wind Press
QNH
hPa
Press
MSL
hPa
Rain since
9am
mm
Dir  Spd
km/h
Gust
km/h
Spd
kts
Gust
kts
14/11:30pm 20.8 16.5 -4.4 18 10.5 SE 9 11 5 6 1010.0 - 0.0
14/11:00pm 21.7 17.8 -4.4 17 10.9 SSE 7 11 4 6 1010.2 - 0.0
14/10:30pm 22.4 18.2 -3.8 17 11.2 SSE 9 13 5 7 1010.4 - 0.0
14/10:00pm 22.8 18.6 -4.3 16 11.5 SE 9 13 5 7 1010.3 - 0.0
14/09:30pm 23.7 19.1 -4.4 15 12.0 SE 11 17 6 9 1010.2 - 0.0
14/09:00pm 24.7 19.3 -4.6 14 12.6 SSE 15 20 8 11 1010.0 1007.6 0.0
14/08:30pm 25.4 19.9 -5.0 13 13.0 SSE 15 20 8 11 1009.6 - 0.0
14/08:00pm 26.1 21.1 -4.4 13 13.3 SSE 13 26 7 14 1009.4 - 0.0
14/07:30pm 26.9 21.2 -3.8 13 13.6 SSE 17 22 9 12 1009.1 - 0.0
14/07:00pm 27.7 22.1 -3.2 13 13.9 S 17 24 9 13 1008.8 - 0.0
14/06:30pm 28.4 22.8 -2.6 13 14.2 SSE 17 28 9 15 1008.4 - 0.0
14/06:00pm 29.4 23.4 -2.9 12 14.9 S 19 28 10 15 1008.0 1005.6 0.0
14/05:30pm 29.8 23.9 -2.6 12 15.0 S 19 28 10 15 1007.6 - 0.0
14/05:00pm 29.8 23.9 -2.6 12 15.0 S 19 28 10 15 1007.4 - 0.0
14/04:30pm 30.3 24.4 -2.2 12 15.2 S 19 35 10 19 1007.0 - 0.0
14/04:00pm 29.7 23.6 -2.7 12 15.0 SSE 20 33 11 18 1007.2 - 0.0
14/03:30pm 30.5 25.0 -2.1 12 15.3 S 17 28 9 15 1007.4 - 0.0
14/03:00pm 29.8 23.7 -2.6 12 15.0 SSW 20 30 11 16 1007.6 1005.3 0.0
14/02:30pm 29.7 23.9 -1.6 13 14.7 S 19 35 10 19 1008.0 - 0.0
14/02:00pm 28.6 23.0 -2.5 13 14.3 SSE 17 30 9 16 1008.6 - 0.0
14/01:30pm 28.8 22.9 -2.3 13 14.4 S 19 33 10 18 1009.1 - 0.0
14/01:00pm 27.4 21.7 -3.4 13 13.8 SSE 17 28 9 15 1009.5 - 0.0
14/12:30pm 27.2 21.6 -2.6 14 13.5 SSW 17 35 9 19 1009.9 - 0.0
14/12:00pm 26.3 19.7 -3.3 14 13.2 S 22 32 12 17 1010.6 1008.2 0.0
14/11:30am 25.7 19.4 -3.8 14 12.9 S 20 33 11 18 1011.0 - 0.0
14/11:00am 25.5 19.3 -3.0 15 12.7 SSE 20 32 11 17 1011.4 - 0.0
14/10:30am 25.0 18.8 -3.4 15 12.5 S 20 30 11 16 1011.9 - 0.0
14/10:00am 24.5 18.5 -2.9 16 12.1 SSE 19 26 10 14 1012.1 - 0.0
14/09:30am 23.4 16.8 -3.0 17 11.5 SE 22 32 12 17 1012.5 - 0.0
14/09:00am 23.1 16.9 -3.3 17 11.4 SSE 20 32 11 17 1012.6 1010.2 0.0
14/08:30am 22.9 16.8 -2.6 18 11.2 SSE 20 32 11 17 1012.8 - 0.0
14/08:00am 21.8 14.9 -2.8 19 10.6 SSE 24 33 13 18 1012.9 - 0.0
14/07:30am 21.2 14.6 -3.3 19 10.4 SE 22 33 12 18 1012.9 - 0.0
14/07:00am 20.8 13.9 -3.0 20 10.1 SE 24 33 13 18 1012.7 - 0.0
14/06:30am 20.6 14.8 -1.8 22 9.8 SSE 19 28 10 15 1012.4 - 0.0
14/06:00am 20.4 14.9 -2.0 22 9.7 SSE 17 26 9 14 1011.8 1009.4 0.0
14/05:30am 20.4 14.5 -2.0 22 9.7 SSE 19 30 10 16 1011.3 - 0.0
14/05:00am 20.8 14.9 -1.1 23 9.7 SSE 20 33 11 18 1010.6 - 0.0
14/04:30am 21.3 15.7 -0.1 24 9.7 SSE 19 32 10 17 1010.0 - 0.0
14/04:00am 21.8 15.3 0.4 24 9.8 SSE 24 35 13 19 1009.6 - 0.0
14/03:30am 22.5 15.6 0.4 23 10.2 SSE 26 37 14 20 1009.4 - 0.0
14/03:00am 23.1 16.5 -0.4 21 10.8 SSE 24 41 13 22 1009.4 1006.9 0.0
14/02:30am 23.5 17.3 -0.1 21 10.9 SSE 22 32 12 17 1009.4 - 0.0
14/02:00am 24.2 18.3 -0.9 19 11.5 SSE 20 30 11 16 1009.5 - 0.0
14/01:30am 24.5 18.3 -0.6 19 11.6 SSE 22 32 12 17 1009.8 - 0.0
14/01:00am 25.1 19.2 -0.9 18 12.0 SSE 20 33 11 18 1010.0 - 0.0
14/12:30am 25.5 19.5 -1.3 17 12.3 SSE 20 30 11 16 1010.5 - 0.0
14/12:00am 26.1 20.1 -1.7 16 12.7 SSE 20 30 11 16 1010.8 1008.3 0.0
 
Date/Time
CST
Temp
°C
App
Temp
°C
Dew
Point
°C
Rel
Hum
%
Delta-T
°C
Wind Press
QNH
hPa
Press
MSL
hPa
Rain since
9am
mm
Dir  Spd
km/h
Gust
km/h
Spd
kts
Gust
kts
13/11:30pm 26.7 20.2 -2.1 15 13.1 SSE 22 32 12 17 1010.9 - 0.0
13/11:00pm 27.3 21.4 -2.5 14 13.6 SSE 19 28 10 15 1011.0 - 0.0
13/10:30pm 28.1 21.7 -1.9 14 13.9 SSE 22 33 12 18 1011.1 - 0.0
13/10:00pm 28.6 23.3 2.0 18 13.2 S 19 33 10 18 1010.8 - 0.0
13/09:30pm 28.9 24.7 3.7 20 12.9 S 15 22 8 12 1010.3 - 0.0
13/09:00pm 29.5 25.0 6.2 23 12.5 S 19 28 10 15 1009.9 1007.5 0.0
13/08:30pm 29.9 25.6 7.2 24 12.4 S 19 30 10 16 1009.4 - 0.0
13/08:00pm 30.5 25.6 7.0 23 12.9 S 22 35 12 19 1008.9 - 0.0
13/07:30pm 30.9 26.0 6.7 22 13.2 S 22 32 12 17 1008.5 - 0.0
13/07:00pm 31.6 26.6 6.6 21 13.7 SSE 22 33 12 18 1008.4 - 0.0
13/06:30pm 32.6 28.1 6.0 19 14.5 S 19 33 10 18 1008.1 - 0.0
13/06:00pm 33.6 29.1 6.8 19 14.9 S 20 28 11 15 1007.8 1005.4 0.0
13/05:30pm 34.0 29.4 6.3 18 15.3 S 20 33 11 18 1007.5 - 0.0
13/05:00pm 34.1 29.3 7.2 19 15.0 SSE 22 32 12 17 1007.3 - 0.0
13/04:30pm 34.5 30.1 7.5 19 15.2 S 20 30 11 16 1007.3 - 0.0
13/04:00pm 34.9 30.0 8.6 20 15.1 SSE 24 43 13 23 1007.2 - 0.0
13/03:30pm 34.5 30.7 9.7 22 14.4 S 20 37 11 20 1007.4 - 0.0
13/03:00pm 35.9 32.4 10.9 22 14.9 SSE 20 32 11 17 1007.6 1005.3 0.0
13/02:30pm 35.0 31.8 11.4 24 14.1 SSE 19 39 10 21 1007.8 - 0.0
13/02:00pm 35.1 31.4 11.5 24 14.1 S 22 35 12 19 1008.1 - 0.0
13/01:30pm 36.2 33.3 12.4 24 14.5 S 19 30 10 16 1008.5 - 0.0
13/01:00pm 35.0 30.9 11.4 24 14.1 SSE 24 39 13 21 1008.7 - 0.0

Other Formats:

Comma delimited format used in spreadsheet applications
http://www.bom.gov.au/fwo/IDD60801/IDD60801.94327.axf

JavaScript Object Notation format (JSON) in row-major order
http://www.bom.gov.au/fwo/IDD60801/IDD60801.94327.json